createdAt,value
2023-04-16T00:00:44.694Z,9.30
2023-04-16T00:03:11.910Z,9.40
2023-04-16T00:05:39.166Z,9.30
2023-04-16T00:08:07.692Z,9.30
2023-04-16T00:10:35.507Z,9.30
2023-04-16T00:13:02.553Z,9.30
2023-04-16T00:15:29.550Z,9.30
2023-04-16T00:17:56.500Z,9.30
2023-04-16T00:20:23.638Z,9.30
2023-04-16T00:22:51.915Z,9.30
2023-04-16T00:25:20.364Z,9.40
2023-04-16T00:27:47.958Z,9.30
2023-04-16T00:30:15.121Z,9.30
2023-04-16T00:32:42.212Z,9.30
2023-04-16T00:35:09.526Z,9.30
2023-04-16T00:37:36.732Z,9.30
2023-04-16T00:40:06.976Z,9.30
2023-04-16T00:42:38.250Z,9.30
2023-04-16T00:45:07.611Z,9.30
2023-04-16T00:47:37.053Z,9.30
2023-04-16T00:50:05.085Z,9.30
2023-04-16T00:52:34.525Z,9.30
2023-04-16T00:55:01.954Z,9.30
2023-04-16T00:57:31.022Z,9.30
2023-04-16T01:00:05.795Z,9.30
2023-04-16T01:02:44.440Z,9.40
2023-04-16T01:05:21.323Z,9.40
2023-04-16T01:07:48.290Z,9.40
2023-04-16T01:10:18.242Z,9.30
2023-04-16T01:12:45.592Z,9.30
2023-04-16T01:15:14.113Z,9.30
2023-04-16T01:17:41.149Z,9.30
2023-04-16T01:20:21.997Z,9.40
2023-04-16T01:22:52.569Z,9.30
2023-04-16T01:25:20.210Z,9.30
2023-04-16T01:27:50.874Z,9.30
2023-04-16T01:30:17.893Z,9.30
2023-04-16T01:32:45.147Z,9.30
2023-04-16T01:35:12.095Z,9.30
2023-04-16T01:37:39.379Z,9.30
2023-04-16T01:40:11.590Z,9.30
2023-04-16T01:42:41.836Z,9.30
2023-04-16T01:45:10.035Z,9.30
2023-04-16T01:47:37.096Z,9.30
2023-04-16T01:50:04.923Z,9.30
2023-04-16T01:52:32.495Z,9.20
2023-04-16T01:54:59.495Z,9.30
2023-04-16T01:57:28.385Z,9.30
2023-04-16T01:59:55.552Z,9.30
2023-04-16T02:02:28.458Z,9.30
2023-04-16T02:04:59.277Z,9.30
2023-04-16T02:07:27.661Z,9.30
2023-04-16T02:09:54.656Z,9.30
2023-04-16T02:12:21.713Z,9.30
2023-04-16T02:14:50.121Z,9.30
2023-04-16T02:17:17.746Z,9.30
2023-04-16T02:19:44.682Z,9.30
2023-04-16T02:22:11.860Z,9.30
2023-04-16T02:24:38.802Z,9.30
2023-04-16T02:27:05.988Z,9.20
2023-04-16T02:29:43.091Z,9.20
2023-04-16T02:32:12.243Z,9.30
2023-04-16T02:34:42.339Z,9.30
2023-04-16T02:37:09.383Z,9.30
2023-04-16T02:39:36.814Z,9.20
2023-04-16T02:42:05.119Z,9.30
2023-04-16T02:44:56.738Z,9.30
2023-04-16T02:47:29.204Z,9.30
2023-04-16T02:49:56.335Z,9.30
2023-04-16T02:52:23.549Z,9.30
2023-04-16T02:54:50.454Z,9.30
2023-04-16T02:57:17.686Z,9.30
2023-04-16T02:59:44.649Z,9.30
2023-04-16T03:02:12.064Z,9.20
2023-04-16T03:04:40.626Z,9.30
2023-04-16T03:07:09.151Z,9.20
2023-04-16T03:09:36.342Z,9.30
2023-04-16T03:12:03.343Z,9.30
2023-04-16T03:14:31.140Z,9.20
2023-04-16T03:16:58.162Z,9.20
2023-04-16T03:19:25.880Z,9.20
2023-04-16T03:21:54.345Z,9.20
2023-04-16T03:24:21.703Z,9.30
2023-04-16T03:26:50.377Z,9.30
2023-04-16T03:29:17.435Z,9.30
2023-04-16T03:31:45.112Z,9.20
2023-04-16T03:34:12.134Z,9.20
2023-04-16T03:36:41.777Z,9.30
2023-04-16T03:39:10.275Z,9.30
2023-04-16T03:41:39.569Z,9.20
2023-04-16T03:44:06.554Z,9.20
2023-04-16T03:46:36.542Z,9.20
2023-04-16T03:49:06.373Z,9.10
2023-04-16T03:51:33.736Z,9.10
2023-04-16T03:54:00.796Z,9.10
2023-04-16T03:56:29.146Z,9.20
2023-04-16T03:58:57.300Z,9.20
2023-04-16T04:01:24.183Z,9.10
2023-04-16T04:03:51.531Z,9.10
2023-04-16T04:06:18.648Z,9.10
2023-04-16T04:08:45.905Z,9.10
2023-04-16T04:11:12.926Z,9.10
2023-04-16T04:13:41.477Z,9.10
2023-04-16T04:16:08.492Z,9.10
2023-04-16T04:18:35.554Z,9.10
2023-04-16T04:21:06.494Z,9.10
2023-04-16T04:23:34.064Z,9.10
2023-04-16T04:26:05.909Z,9.10
2023-04-16T04:28:33.527Z,9.10
2023-04-16T04:31:02.520Z,9.10
2023-04-16T04:33:30.067Z,9.10
2023-04-16T04:35:57.248Z,9.10
2023-04-16T04:38:25.405Z,9.10
2023-04-16T04:40:53.045Z,9.20
2023-04-16T04:43:20.330Z,9.10
2023-04-16T04:45:48.420Z,9.10
2023-04-16T04:48:19.791Z,9.10
2023-04-16T04:50:47.435Z,9.10
2023-04-16T04:53:14.928Z,9.20
2023-04-16T04:55:42.739Z,9.10
2023-04-16T04:58:09.689Z,9.10
2023-04-16T05:00:37.187Z,9.10
2023-04-16T05:03:06.220Z,9.10
2023-04-16T05:05:34.477Z,9.10
2023-04-16T05:08:01.964Z,9.20
2023-04-16T05:10:28.879Z,9.10
2023-04-16T05:12:56.453Z,9.10
2023-04-16T05:15:23.531Z,9.20
2023-04-16T05:17:50.763Z,9.20
2023-04-16T05:20:17.780Z,9.20
2023-04-16T05:22:46.196Z,9.20
2023-04-16T05:25:13.194Z,9.10
2023-04-16T05:27:40.664Z,9.10
2023-04-16T05:30:08.956Z,9.10
2023-04-16T05:32:36.113Z,9.20
2023-04-16T05:35:03.270Z,9.20
2023-04-16T05:37:30.379Z,9.20
2023-04-16T05:39:58.874Z,9.20
2023-04-16T05:42:32.912Z,9.20
2023-04-16T05:44:59.861Z,9.20
2023-04-16T05:47:27.403Z,9.20
2023-04-16T05:49:54.956Z,9.20
2023-04-16T05:52:22.126Z,9.20
2023-04-16T05:54:48.980Z,9.20
2023-04-16T05:57:17.812Z,9.20
2023-04-16T05:59:44.975Z,9.20
2023-04-16T06:02:12.236Z,9.20
2023-04-16T06:04:39.762Z,9.20
2023-04-16T06:07:07.068Z,9.20
2023-04-16T06:09:34.472Z,9.20
2023-04-16T06:12:01.384Z,9.30
2023-04-16T06:14:29.662Z,9.30
2023-04-16T06:16:56.531Z,9.30
2023-04-16T06:19:23.510Z,9.30
2023-04-16T06:21:50.890Z,9.30
2023-04-16T06:24:18.508Z,9.30
2023-04-16T06:26:45.983Z,9.30
2023-04-16T06:29:13.063Z,9.30
2023-04-16T06:31:42.015Z,9.30
2023-04-16T06:34:09.623Z,9.30
2023-04-16T06:36:37.701Z,9.30
2023-04-16T06:39:05.785Z,9.30
2023-04-16T06:41:32.816Z,9.30
2023-04-16T06:44:00.190Z,9.30
2023-04-16T06:46:27.247Z,9.30
2023-04-16T06:48:56.219Z,9.40
2023-04-16T06:51:23.292Z,9.40
2023-04-16T06:53:50.468Z,9.40
2023-04-16T06:56:21.743Z,9.40
2023-04-16T06:58:50.103Z,9.40
2023-04-16T07:01:17.786Z,9.40
2023-04-16T07:03:45.247Z,9.40
2023-04-16T07:06:16.180Z,9.40
2023-04-16T07:08:43.524Z,9.40
2023-04-16T07:11:10.676Z,9.40
2023-04-16T07:13:40.494Z,9.40
2023-04-16T07:16:08.048Z,9.40
2023-04-16T07:18:35.080Z,9.40
2023-04-16T07:21:02.576Z,9.40
2023-04-16T07:23:31.390Z,9.40
2023-04-16T07:25:58.369Z,9.40
2023-04-16T07:28:26.322Z,9.50
2023-04-16T07:30:53.193Z,9.50
2023-04-16T07:33:23.111Z,9.50
2023-04-16T07:35:51.363Z,9.50
2023-04-16T07:38:18.282Z,9.50
2023-04-16T07:40:46.977Z,9.60
2023-04-16T07:43:15.390Z,9.60
2023-04-16T07:45:42.391Z,9.60
2023-04-16T07:48:09.954Z,9.60
2023-04-16T07:50:37.269Z,9.60
2023-04-16T07:53:06.143Z,9.60
2023-04-16T07:55:35.691Z,9.70
2023-04-16T07:58:07.930Z,9.70
2023-04-16T08:00:35.122Z,9.70
2023-04-16T08:03:02.262Z,9.70
2023-04-16T08:05:30.069Z,9.70
2023-04-16T08:07:57.262Z,9.70
2023-04-16T08:10:24.338Z,9.70
2023-04-16T08:12:51.554Z,9.70
2023-04-16T08:15:20.057Z,9.70
2023-04-16T08:17:49.844Z,9.80
2023-04-16T08:20:19.199Z,9.80
2023-04-16T08:22:48.046Z,9.80
2023-04-16T08:25:15.186Z,9.80
2023-04-16T08:27:42.208Z,9.90
2023-04-16T08:30:09.328Z,9.90
2023-04-16T08:32:37.876Z,9.80
2023-04-16T08:35:06.011Z,9.90
2023-04-16T08:37:32.945Z,9.90
2023-04-16T08:40:01.035Z,9.90
2023-04-16T08:42:32.083Z,9.90
2023-04-16T08:45:07.714Z,9.90
2023-04-16T08:47:37.285Z,9.90
2023-04-16T08:50:06.212Z,10.00
2023-04-16T08:52:34.380Z,9.90
2023-04-16T08:55:09.220Z,10.00
2023-04-16T08:57:40.776Z,9.90
2023-04-16T09:00:09.824Z,10.00
2023-04-16T09:02:39.207Z,10.00
2023-04-16T09:05:09.551Z,10.10
2023-04-16T09:07:37.873Z,10.10
2023-04-16T09:10:07.468Z,10.10
2023-04-16T09:12:36.315Z,10.10
2023-04-16T09:15:05.186Z,10.10
2023-04-16T09:17:32.693Z,10.20
2023-04-16T09:20:01.862Z,10.20
2023-04-16T09:22:29.009Z,10.20
2023-04-16T09:24:56.168Z,10.20
2023-04-16T09:27:25.452Z,10.30
2023-04-16T09:29:52.984Z,10.30
2023-04-16T09:32:26.552Z,10.30
2023-04-16T09:34:57.917Z,10.40
2023-04-16T09:37:29.445Z,10.40
2023-04-16T09:39:57.987Z,10.40
2023-04-16T09:42:27.346Z,10.40
2023-04-16T09:44:54.546Z,10.40
2023-04-16T09:47:22.757Z,10.40
2023-04-16T09:49:50.472Z,10.40
2023-04-16T09:52:20.892Z,10.50
2023-04-16T09:54:50.696Z,10.50
2023-04-16T09:57:22.139Z,10.50
2023-04-16T09:59:52.399Z,10.50
2023-04-16T10:02:21.899Z,10.50
2023-04-16T10:04:52.400Z,10.50
2023-04-16T10:07:21.125Z,10.50
2023-04-16T10:09:49.943Z,10.50
2023-04-16T10:12:17.126Z,10.50
2023-04-16T10:14:44.249Z,10.50
2023-04-16T10:17:11.826Z,10.50
2023-04-16T10:19:39.948Z,10.50
2023-04-16T10:22:06.957Z,10.60
2023-04-16T10:24:37.728Z,10.60
2023-04-16T10:27:06.164Z,10.60
2023-04-16T10:29:35.450Z,10.60
2023-04-16T10:32:03.069Z,10.60
2023-04-16T10:34:33.026Z,10.60
2023-04-16T10:37:00.368Z,10.70
2023-04-16T10:39:29.933Z,10.70
2023-04-16T10:42:09.446Z,10.70
2023-04-16T10:44:36.982Z,10.80
2023-04-16T10:47:11.226Z,10.80
2023-04-16T10:49:38.072Z,10.90
2023-04-16T10:52:10.088Z,10.80
2023-04-16T10:54:37.734Z,10.90
2023-04-16T10:57:08.171Z,10.90
2023-04-16T10:59:38.035Z,10.90
2023-04-16T11:02:09.759Z,10.90
2023-04-16T11:04:38.103Z,11.00
2023-04-16T11:07:07.983Z,11.00
2023-04-16T11:09:51.402Z,11.00
2023-04-16T11:12:20.422Z,11.10
2023-04-16T11:14:50.530Z,11.10
2023-04-16T11:17:18.611Z,11.10
2023-04-16T11:19:46.186Z,11.00
2023-04-16T11:22:17.731Z,11.10
2023-04-16T11:24:47.353Z,11.10
2023-04-16T11:27:16.089Z,11.10
2023-04-16T11:29:45.016Z,11.10
2023-04-16T11:32:22.644Z,11.10
2023-04-16T11:34:50.589Z,11.10
2023-04-16T11:37:21.538Z,11.10
2023-04-16T11:39:52.949Z,11.20
2023-04-16T11:42:23.132Z,11.20
2023-04-16T11:44:54.453Z,11.20
2023-04-16T11:47:26.355Z,11.30
2023-04-16T11:49:53.615Z,11.40
2023-04-16T11:52:28.537Z,11.40
2023-04-16T11:54:57.022Z,11.40
2023-04-16T11:57:29.005Z,11.40
2023-04-16T12:00:01.762Z,11.40
2023-04-16T12:02:38.255Z,11.40
2023-04-16T12:05:08.257Z,11.50
2023-04-16T12:07:46.111Z,11.40
2023-04-16T12:10:13.099Z,11.50
2023-04-16T12:12:40.580Z,11.50
2023-04-16T12:15:09.264Z,11.50
2023-04-16T12:17:38.563Z,11.50
2023-04-16T12:20:11.216Z,11.60
2023-04-16T12:22:39.909Z,11.60
2023-04-16T12:25:11.680Z,11.60
2023-04-16T12:27:43.427Z,11.60
2023-04-16T12:30:12.044Z,11.70
2023-04-16T12:32:41.857Z,11.70
2023-04-16T12:35:10.391Z,11.70
2023-04-16T12:37:38.096Z,11.70
2023-04-16T12:40:07.042Z,11.80
2023-04-16T12:42:37.488Z,11.90
2023-04-16T12:45:06.951Z,11.90
2023-04-16T12:47:33.912Z,12.00
2023-04-16T12:50:02.618Z,12.20
2023-04-16T12:52:29.722Z,12.30
2023-04-16T12:54:56.745Z,12.40
2023-04-16T12:57:28.652Z,12.40
2023-04-16T12:59:56.958Z,12.50
2023-04-16T13:02:25.163Z,12.60
2023-04-16T13:04:52.727Z,12.70
2023-04-16T13:07:21.499Z,12.70
2023-04-16T13:09:48.647Z,12.80
2023-04-16T13:12:15.673Z,12.80
2023-04-16T13:14:44.956Z,12.90
2023-04-16T13:17:14.275Z,12.90
2023-04-16T13:19:41.199Z,12.90
2023-04-16T13:22:09.379Z,12.90
2023-04-16T13:24:40.887Z,12.90
2023-04-16T13:27:08.617Z,12.90
2023-04-16T13:29:38.383Z,12.90
2023-04-16T13:32:06.232Z,12.90
2023-04-16T13:34:33.274Z,12.90
2023-04-16T13:37:00.152Z,12.90
2023-04-16T13:39:27.706Z,12.90
2023-04-16T13:41:56.028Z,12.90
2023-04-16T13:44:22.899Z,12.90
2023-04-16T13:46:50.261Z,12.90
2023-04-16T13:49:17.252Z,13.00
2023-04-16T13:51:46.954Z,13.00
2023-04-16T13:54:14.196Z,13.00
2023-04-16T13:56:41.486Z,13.10
2023-04-16T13:59:10.909Z,13.00
2023-04-16T14:01:38.824Z,13.10
2023-04-16T14:04:07.094Z,13.10
2023-04-16T14:06:34.901Z,13.20
2023-04-16T14:09:01.864Z,13.10
2023-04-16T14:11:29.358Z,13.20
2023-04-16T14:13:56.392Z,13.20
2023-04-16T14:16:26.060Z,13.10
2023-04-16T14:18:53.739Z,13.10
2023-04-16T14:21:20.829Z,13.10
2023-04-16T14:23:48.080Z,13.10
2023-04-16T14:26:15.919Z,13.10
2023-04-16T14:28:42.921Z,13.00
2023-04-16T14:31:10.359Z,13.00
2023-04-16T14:33:38.786Z,13.00
2023-04-16T14:36:06.754Z,12.90
2023-04-16T14:38:33.725Z,12.90
2023-04-16T14:41:00.861Z,12.90
2023-04-16T14:43:28.099Z,12.80
2023-04-16T14:45:59.266Z,12.80
2023-04-16T14:48:26.198Z,12.80
2023-04-16T14:50:55.135Z,12.80
2023-04-16T14:53:24.523Z,12.90
2023-04-16T14:55:53.330Z,12.90
2023-04-16T14:58:20.475Z,12.90
2023-04-16T15:00:48.141Z,12.90
2023-04-16T15:03:15.410Z,12.90
2023-04-16T15:05:43.260Z,12.90
2023-04-16T15:08:12.072Z,12.90
2023-04-16T15:10:39.196Z,12.90
2023-04-16T15:13:06.501Z,12.90
2023-04-16T15:15:33.548Z,12.90
2023-04-16T15:18:00.782Z,12.90
2023-04-16T15:20:27.866Z,12.90
2023-04-16T15:22:57.201Z,12.90
2023-04-16T15:25:29.203Z,12.90
2023-04-16T15:27:57.987Z,12.90
2023-04-16T15:30:25.431Z,12.90
2023-04-16T15:32:52.537Z,12.90
2023-04-16T15:35:20.077Z,12.90
2023-04-16T15:37:46.963Z,12.90
2023-04-16T15:40:15.943Z,12.90
2023-04-16T15:42:45.079Z,12.80
2023-04-16T15:45:12.237Z,12.80
2023-04-16T15:47:41.621Z,12.80
2023-04-16T15:50:11.810Z,12.70
2023-04-16T15:52:39.605Z,12.70
2023-04-16T15:55:07.090Z,12.60
2023-04-16T15:57:35.340Z,12.60
2023-04-16T16:00:13.888Z,12.60
2023-04-16T16:02:41.872Z,12.50
2023-04-16T16:05:10.896Z,12.50
2023-04-16T16:07:37.872Z,12.50
2023-04-16T16:10:09.656Z,12.50
2023-04-16T16:12:37.442Z,12.50
2023-04-16T16:15:07.332Z,12.50
2023-04-16T16:17:37.358Z,12.50
2023-04-16T16:20:11.004Z,12.60
2023-04-16T16:22:39.023Z,12.60
2023-04-16T16:25:10.464Z,12.70
2023-04-16T16:27:37.700Z,12.70
2023-04-16T16:30:07.857Z,12.70
2023-04-16T16:32:35.513Z,12.70
2023-04-16T16:35:02.519Z,12.70
2023-04-16T16:37:36.335Z,12.60
2023-04-16T16:40:03.701Z,12.60
2023-04-16T16:42:35.031Z,12.60
2023-04-16T16:45:05.384Z,12.60
2023-04-16T16:47:33.759Z,12.60
2023-04-16T16:50:02.905Z,12.50
2023-04-16T16:52:30.731Z,12.50
2023-04-16T16:54:57.939Z,12.50
2023-04-16T16:57:25.821Z,12.40
2023-04-16T16:59:54.948Z,12.40
2023-04-16T17:02:21.971Z,12.40
2023-04-16T17:04:50.388Z,12.40
2023-04-16T17:07:18.390Z,12.40
2023-04-16T17:09:46.164Z,12.40
2023-04-16T17:12:13.651Z,12.40
2023-04-16T17:14:40.997Z,12.40
2023-04-16T17:17:08.538Z,12.30
2023-04-16T17:19:35.430Z,12.30
2023-04-16T17:22:05.157Z,12.20
2023-04-16T17:24:32.508Z,12.20
2023-04-16T17:26:59.332Z,12.20
2023-04-16T17:29:27.648Z,12.20
2023-04-16T17:31:54.688Z,12.10
2023-04-16T17:34:23.951Z,12.10
2023-04-16T17:36:51.690Z,12.00
2023-04-16T17:39:22.967Z,12.00
2023-04-16T17:41:54.403Z,12.00
2023-04-16T17:44:23.155Z,12.00
2023-04-16T17:46:50.472Z,12.00
2023-04-16T17:49:17.504Z,11.90
2023-04-16T17:51:44.820Z,11.90
2023-04-16T17:54:12.033Z,11.90
2023-04-16T17:56:41.722Z,11.90
2023-04-16T17:59:09.199Z,11.90
2023-04-16T18:01:36.207Z,11.80
2023-04-16T18:04:03.553Z,11.80
2023-04-16T18:06:30.971Z,11.80
2023-04-16T18:08:58.523Z,11.70
2023-04-16T18:11:25.581Z,11.70
2023-04-16T18:13:54.069Z,11.70
2023-04-16T18:16:22.943Z,11.70
2023-04-16T18:18:50.135Z,11.70
2023-04-16T18:21:17.964Z,11.70
2023-04-16T18:23:44.937Z,11.60
2023-04-16T18:26:12.802Z,11.60
2023-04-16T18:28:40.769Z,11.60
2023-04-16T18:31:09.235Z,11.60
2023-04-16T18:33:54.187Z,11.60
2023-04-16T18:36:24.255Z,11.60
2023-04-16T18:39:15.682Z,11.50
2023-04-16T18:41:38.976Z,11.50
2023-04-16T18:44:06.631Z,11.50
2023-04-16T18:46:35.523Z,11.40
2023-04-16T18:49:02.724Z,11.40
2023-04-16T18:51:30.417Z,11.40
2023-04-16T18:53:57.395Z,11.40
2023-04-16T18:56:31.866Z,11.30
2023-04-16T18:58:59.107Z,11.30
2023-04-16T19:01:26.678Z,11.30
2023-04-16T19:03:56.228Z,11.30
2023-04-16T19:06:23.252Z,11.20
2023-04-16T19:08:50.464Z,11.20
2023-04-16T19:11:17.506Z,11.20
2023-04-16T19:13:44.903Z,11.10
2023-04-16T19:16:13.247Z,11.10
2023-04-16T19:18:40.344Z,11.10
2023-04-16T19:21:10.879Z,11.10
2023-04-16T19:23:38.605Z,11.00
2023-04-16T19:26:05.952Z,11.00
2023-04-16T19:28:33.290Z,11.00
2023-04-16T19:31:00.335Z,10.90
2023-04-16T19:33:27.511Z,10.90
2023-04-16T19:35:54.673Z,10.90
2023-04-16T19:38:23.163Z,10.80
2023-04-16T19:40:51.604Z,10.80
2023-04-16T19:43:18.519Z,10.80
2023-04-16T19:45:46.893Z,10.70
2023-04-16T19:48:14.556Z,10.70
2023-04-16T19:50:42.330Z,10.60
2023-04-16T19:53:12.504Z,10.60
2023-04-16T19:55:41.644Z,10.50
2023-04-16T19:58:09.385Z,10.50
2023-04-16T20:00:37.457Z,10.50
2023-04-16T20:03:07.123Z,10.50
2023-04-16T20:05:34.842Z,10.40
2023-04-16T20:08:01.849Z,10.40
2023-04-16T20:10:31.544Z,10.40
2023-04-16T20:13:00.752Z,10.30
2023-04-16T20:15:27.839Z,10.30
2023-04-16T20:17:56.398Z,10.30
2023-04-16T20:20:26.802Z,10.30
2023-04-16T20:22:54.075Z,10.30
2023-04-16T20:25:22.048Z,10.20
2023-04-16T20:27:49.153Z,10.20
2023-04-16T20:30:18.517Z,10.20
2023-04-16T20:32:45.566Z,10.30
2023-04-16T20:35:12.801Z,10.30
2023-04-16T20:37:42.081Z,10.20
2023-04-16T20:40:12.916Z,10.30
2023-04-16T20:42:41.181Z,10.30
2023-04-16T20:45:09.766Z,10.30
2023-04-16T20:47:38.703Z,10.30
2023-04-16T20:50:07.337Z,10.30
2023-04-16T20:52:34.281Z,10.30
2023-04-16T20:55:01.512Z,10.30
2023-04-16T20:57:29.973Z,10.30
2023-04-16T20:59:57.001Z,10.30
2023-04-16T21:02:24.519Z,10.30
2023-04-16T21:04:55.380Z,10.30
2023-04-16T21:07:22.247Z,10.20
2023-04-16T21:09:52.210Z,10.20
2023-04-16T21:12:19.743Z,10.20
2023-04-16T21:14:52.707Z,10.20
2023-04-16T21:17:19.947Z,10.20
2023-04-16T21:19:46.862Z,10.20
2023-04-16T21:22:15.417Z,10.10
2023-04-16T21:24:45.273Z,10.10
2023-04-16T21:27:12.100Z,10.10
2023-04-16T21:29:39.265Z,10.10
2023-04-16T21:32:06.557Z,10.10
2023-04-16T21:34:33.552Z,10.10
2023-04-16T21:37:00.508Z,10.10
2023-04-16T21:39:31.061Z,10.10
2023-04-16T21:41:58.148Z,10.20
2023-04-16T21:44:25.748Z,10.20
2023-04-16T21:46:52.966Z,10.10
2023-04-16T21:49:20.356Z,10.10
2023-04-16T21:51:47.312Z,10.10
2023-04-16T21:54:17.817Z,10.00
2023-04-16T21:56:46.453Z,10.00
2023-04-16T21:59:13.572Z,10.00
2023-04-16T22:01:40.793Z,10.00
2023-04-16T22:04:10.423Z,10.00
2023-04-16T22:06:37.315Z,10.00
2023-04-16T22:09:06.667Z,10.00
2023-04-16T22:11:33.946Z,10.00
2023-04-16T22:14:03.503Z,10.00
2023-04-16T22:16:31.568Z,10.00
2023-04-16T22:18:59.343Z,10.00
2023-04-16T22:21:26.495Z,10.00
2023-04-16T22:23:53.574Z,10.00
2023-04-16T22:26:20.932Z,9.90
2023-04-16T22:28:48.117Z,10.00
2023-04-16T22:31:17.564Z,9.90
2023-04-16T22:33:44.762Z,9.90
2023-04-16T22:36:12.604Z,9.90
2023-04-16T22:38:39.760Z,9.90
2023-04-16T22:41:06.866Z,9.90
2023-04-16T22:43:36.929Z,9.90
2023-04-16T22:46:05.336Z,9.90
2023-04-16T22:48:36.437Z,9.80
2023-04-16T22:51:04.441Z,9.80
2023-04-16T22:53:31.574Z,9.80
2023-04-16T22:55:58.509Z,9.80
2023-04-16T22:58:25.552Z,9.80
2023-04-16T23:00:52.730Z,9.70
2023-04-16T23:03:19.890Z,9.80
2023-04-16T23:05:49.508Z,9.70
2023-04-16T23:08:16.360Z,9.70
2023-04-16T23:10:44.199Z,9.70
2023-04-16T23:13:11.255Z,9.70
2023-04-16T23:15:38.574Z,9.60
2023-04-16T23:18:07.829Z,9.60
2023-04-16T23:20:34.827Z,9.60
2023-04-16T23:23:03.174Z,9.60
2023-04-16T23:25:30.991Z,9.60
2023-04-16T23:27:58.043Z,9.60
2023-04-16T23:30:25.388Z,9.60
2023-04-16T23:32:52.739Z,9.60
2023-04-16T23:35:22.931Z,9.60
2023-04-16T23:37:50.865Z,9.60
2023-04-16T23:40:19.435Z,9.60
2023-04-16T23:42:46.532Z,9.60
2023-04-16T23:45:13.959Z,9.60
2023-04-16T23:47:41.002Z,9.50
2023-04-16T23:50:08.686Z,9.50
2023-04-16T23:52:35.747Z,9.50
2023-04-16T23:55:03.239Z,9.50
2023-04-16T23:57:31.627Z,9.50
2023-04-16T23:59:58.615Z,9.50
